sensor_id;sensor_type;location;lat;lon;timestamp;pressure;altitude;pressure_sealevel;temperature;humidity
77323;BME280;66384;51.052;9.850;2023-08-08T00:02:04;98498.22;;;12.58;68.12
77323;BME280;66384;51.052;9.850;2023-08-08T00:04:36;98502.20;;;12.59;68.21
77323;BME280;66384;51.052;9.850;2023-08-08T00:07:07;98499.67;;;12.63;68.18
77323;BME280;66384;51.052;9.850;2023-08-08T00:09:39;98495.52;;;12.62;68.30
77323;BME280;66384;51.052;9.850;2023-08-08T00:12:11;98491.23;;;12.65;68.31
77323;BME280;66384;51.052;9.850;2023-08-08T00:14:42;98484.88;;;12.67;68.38
77323;BME280;66384;51.052;9.850;2023-08-08T00:17:14;98488.52;;;12.68;68.33
77323;BME280;66384;51.052;9.850;2023-08-08T00:19:46;98486.11;;;12.68;68.27
77323;BME280;66384;51.052;9.850;2023-08-08T00:22:17;98485.97;;;12.69;68.26
77323;BME280;66384;51.052;9.850;2023-08-08T00:24:49;98489.05;;;12.69;68.39
77323;BME280;66384;51.052;9.850;2023-08-08T00:27:21;98490.58;;;12.68;68.39
77323;BME280;66384;51.052;9.850;2023-08-08T00:29:52;98492.14;;;12.66;68.33
77323;BME280;66384;51.052;9.850;2023-08-08T00:32:25;98494.19;;;12.66;68.48
77323;BME280;66384;51.052;9.850;2023-08-08T00:34:56;98493.30;;;12.64;68.47
77323;BME280;66384;51.052;9.850;2023-08-08T00:37:28;98494.02;;;12.65;68.50
77323;BME280;66384;51.052;9.850;2023-08-08T00:39:59;98491.96;;;12.66;68.57
77323;BME280;66384;51.052;9.850;2023-08-08T00:42:31;98481.61;;;12.67;68.57
77323;BME280;66384;51.052;9.850;2023-08-08T00:45:02;98484.40;;;12.69;68.52
77323;BME280;66384;51.052;9.850;2023-08-08T00:47:35;98476.29;;;12.69;68.58
77323;BME280;66384;51.052;9.850;2023-08-08T00:50:08;98474.91;;;12.69;68.51
77323;BME280;66384;51.052;9.850;2023-08-08T00:52:41;98475.09;;;12.69;68.74
77323;BME280;66384;51.052;9.850;2023-08-08T00:55:13;98472.98;;;12.68;68.76
77323;BME280;66384;51.052;9.850;2023-08-08T00:57:45;98468.63;;;12.64;69.03
77323;BME280;66384;51.052;9.850;2023-08-08T01:00:17;98464.73;;;12.59;69.08
77323;BME280;66384;51.052;9.850;2023-08-08T01:02:49;98458.61;;;12.52;69.17
77323;BME280;66384;51.052;9.850;2023-08-08T01:05:22;98459.93;;;12.47;69.48
77323;BME280;66384;51.052;9.850;2023-08-08T01:07:59;98450.92;;;12.45;69.55
77323;BME280;66384;51.052;9.850;2023-08-08T01:10:36;98447.59;;;12.41;69.68
77323;BME280;66384;51.052;9.850;2023-08-08T01:13:12;98449.10;;;12.38;69.97
77323;BME280;66384;51.052;9.850;2023-08-08T01:15:46;98448.22;;;12.37;70.02
77323;BME280;66384;51.052;9.850;2023-08-08T01:18:20;98453.59;;;12.38;70.35
77323;BME280;66384;51.052;9.850;2023-08-08T01:20:53;98450.48;;;12.38;70.21
77323;BME280;66384;51.052;9.850;2023-08-08T01:23:30;98443.95;;;12.41;70.22
77323;BME280;66384;51.052;9.850;2023-08-08T01:26:04;98442.45;;;12.43;70.30
77323;BME280;66384;51.052;9.850;2023-08-08T01:28:37;98438.34;;;12.44;70.27
77323;BME280;66384;51.052;9.850;2023-08-08T01:31:08;98431.10;;;12.46;70.30
77323;BME280;66384;51.052;9.850;2023-08-08T01:33:40;98428.73;;;12.49;70.35
77323;BME280;66384;51.052;9.850;2023-08-08T01:36:18;98423.76;;;12.52;70.34
77323;BME280;66384;51.052;9.850;2023-08-08T01:38:53;98418.44;;;12.53;70.27
77323;BME280;66384;51.052;9.850;2023-08-08T01:41:30;98416.92;;;12.56;70.46
77323;BME280;66384;51.052;9.850;2023-08-08T01:44:03;98410.41;;;12.59;70.35
77323;BME280;66384;51.052;9.850;2023-08-08T01:46:36;98409.75;;;12.62;70.49
77323;BME280;66384;51.052;9.850;2023-08-08T01:49:08;98406.35;;;12.65;70.28
77323;BME280;66384;51.052;9.850;2023-08-08T01:51:40;98403.80;;;12.67;70.22
77323;BME280;66384;51.052;9.850;2023-08-08T01:54:12;98405.52;;;12.66;70.29
77323;BME280;66384;51.052;9.850;2023-08-08T01:56:43;98411.38;;;12.67;70.35
77323;BME280;66384;51.052;9.850;2023-08-08T01:59:15;98415.86;;;12.66;70.33
77323;BME280;66384;51.052;9.850;2023-08-08T02:01:46;98413.63;;;12.68;70.43
77323;BME280;66384;51.052;9.850;2023-08-08T02:04:19;98412.13;;;12.70;70.41
77323;BME280;66384;51.052;9.850;2023-08-08T02:06:50;98412.84;;;12.74;70.32
77323;BME280;66384;51.052;9.850;2023-08-08T02:09:22;98413.23;;;12.76;70.27
77323;BME280;66384;51.052;9.850;2023-08-08T02:11:54;98416.86;;;12.77;70.20
77323;BME280;66384;51.052;9.850;2023-08-08T02:14:26;98413.07;;;12.78;70.20
77323;BME280;66384;51.052;9.850;2023-08-08T02:16:58;98411.36;;;12.78;69.98
77323;BME280;66384;51.052;9.850;2023-08-08T02:19:29;98415.51;;;12.80;69.97
77323;BME280;66384;51.052;9.850;2023-08-08T02:22:01;98416.73;;;12.82;69.90
77323;BME280;66384;51.052;9.850;2023-08-08T02:24:32;98415.55;;;12.83;69.99
77323;BME280;66384;51.052;9.850;2023-08-08T02:27:04;98418.14;;;12.82;70.03
77323;BME280;66384;51.052;9.850;2023-08-08T02:29:36;98415.54;;;12.81;70.01
77323;BME280;66384;51.052;9.850;2023-08-08T02:32:08;98418.59;;;12.78;70.21
77323;BME280;66384;51.052;9.850;2023-08-08T02:34:40;98417.67;;;12.73;70.32
77323;BME280;66384;51.052;9.850;2023-08-08T02:37:12;98418.48;;;12.69;70.35
77323;BME280;66384;51.052;9.850;2023-08-08T02:39:44;98419.95;;;12.62;70.38
77323;BME280;66384;51.052;9.850;2023-08-08T02:42:15;98414.58;;;12.60;70.65
77323;BME280;66384;51.052;9.850;2023-08-08T02:44:47;98415.47;;;12.63;70.69
77323;BME280;66384;51.052;9.850;2023-08-08T02:47:19;98416.38;;;12.66;70.65
77323;BME280;66384;51.052;9.850;2023-08-08T02:49:51;98417.95;;;12.68;70.58
77323;BME280;66384;51.052;9.850;2023-08-08T02:52:22;98419.03;;;12.70;70.46
77323;BME280;66384;51.052;9.850;2023-08-08T02:54:54;98418.04;;;12.74;70.48
77323;BME280;66384;51.052;9.850;2023-08-08T02:57:25;98417.38;;;12.77;70.55
77323;BME280;66384;51.052;9.850;2023-08-08T02:59:57;98412.56;;;12.78;70.59
77323;BME280;66384;51.052;9.850;2023-08-08T03:02:28;98413.26;;;12.78;70.66
77323;BME280;66384;51.052;9.850;2023-08-08T03:05:00;98416.51;;;12.77;70.71
77323;BME280;66384;51.052;9.850;2023-08-08T03:07:31;98403.71;;;12.74;70.90
77323;BME280;66384;51.052;9.850;2023-08-08T03:10:04;98401.46;;;12.74;71.05
77323;BME280;66384;51.052;9.850;2023-08-08T03:12:36;98400.24;;;12.72;71.21
77323;BME280;66384;51.052;9.850;2023-08-08T03:15:11;98397.84;;;12.74;71.32
77323;BME280;66384;51.052;9.850;2023-08-08T03:17:43;98394.42;;;12.77;71.45
77323;BME280;66384;51.052;9.850;2023-08-08T03:20:15;98391.50;;;12.79;71.42
77323;BME280;66384;51.052;9.850;2023-08-08T03:22:47;98387.94;;;12.83;71.52
77323;BME280;66384;51.052;9.850;2023-08-08T03:25:19;98382.45;;;12.85;71.54
77323;BME280;66384;51.052;9.850;2023-08-08T03:27:50;98384.52;;;12.86;71.49
77323;BME280;66384;51.052;9.850;2023-08-08T03:30:22;98375.53;;;12.84;71.66
77323;BME280;66384;51.052;9.850;2023-08-08T03:32:53;98374.13;;;12.82;71.60
77323;BME280;66384;51.052;9.850;2023-08-08T03:35:25;98373.56;;;12.79;71.71
77323;BME280;66384;51.052;9.850;2023-08-08T03:37:57;98371.98;;;12.78;71.81
77323;BME280;66384;51.052;9.850;2023-08-08T03:40:29;98375.30;;;12.79;71.72
77323;BME280;66384;51.052;9.850;2023-08-08T03:43:01;98373.60;;;12.82;71.80
77323;BME280;66384;51.052;9.850;2023-08-08T03:45:33;98374.14;;;12.83;71.77
77323;BME280;66384;51.052;9.850;2023-08-08T03:48:05;98369.30;;;12.83;71.82
77323;BME280;66384;51.052;9.850;2023-08-08T03:50:37;98366.23;;;12.85;71.86
77323;BME280;66384;51.052;9.850;2023-08-08T03:53:09;98367.09;;;12.85;71.76
77323;BME280;66384;51.052;9.850;2023-08-08T03:55:40;98368.29;;;12.85;72.00
77323;BME280;66384;51.052;9.850;2023-08-08T03:58:12;98367.78;;;12.84;71.76
77323;BME280;66384;51.052;9.850;2023-08-08T04:00:43;98368.79;;;12.83;71.80
77323;BME280;66384;51.052;9.850;2023-08-08T04:03:17;98369.10;;;12.80;71.84
77323;BME280;66384;51.052;9.850;2023-08-08T04:05:49;98369.75;;;12.77;71.90
77323;BME280;66384;51.052;9.850;2023-08-08T04:08:20;98370.61;;;12.76;72.01
77323;BME280;66384;51.052;9.850;2023-08-08T04:10:52;98377.86;;;12.78;71.96
77323;BME280;66384;51.052;9.850;2023-08-08T04:13:24;98381.16;;;12.80;71.96
77323;BME280;66384;51.052;9.850;2023-08-08T04:15:56;98383.43;;;12.82;72.04
77323;BME280;66384;51.052;9.850;2023-08-08T04:18:27;98392.63;;;12.85;72.06
77323;BME280;66384;51.052;9.850;2023-08-08T04:20:59;98397.52;;;12.89;72.16
77323;BME280;66384;51.052;9.850;2023-08-08T04:23:31;98395.33;;;12.93;72.05
77323;BME280;66384;51.052;9.850;2023-08-08T04:26:02;98394.67;;;12.99;72.01
77323;BME280;66384;51.052;9.850;2023-08-08T04:28:34;98390.93;;;13.03;72.00
77323;BME280;66384;51.052;9.850;2023-08-08T04:31:05;98395.30;;;13.07;72.00
77323;BME280;66384;51.052;9.850;2023-08-08T04:33:37;98391.01;;;13.10;71.89
77323;BME280;66384;51.052;9.850;2023-08-08T04:36:09;98390.70;;;13.13;71.90
77323;BME280;66384;51.052;9.850;2023-08-08T04:38:40;98387.80;;;13.16;71.77
77323;BME280;66384;51.052;9.850;2023-08-08T04:41:12;98382.82;;;13.18;71.83
77323;BME280;66384;51.052;9.850;2023-08-08T04:43:43;98386.48;;;13.20;71.67
77323;BME280;66384;51.052;9.850;2023-08-08T04:46:15;98383.20;;;13.22;71.67
77323;BME280;66384;51.052;9.850;2023-08-08T04:48:46;98387.94;;;13.26;71.72
77323;BME280;66384;51.052;9.850;2023-08-08T04:51:18;98382.61;;;13.28;71.66
77323;BME280;66384;51.052;9.850;2023-08-08T04:53:50;98384.73;;;13.33;71.58
77323;BME280;66384;51.052;9.850;2023-08-08T04:56:21;98377.68;;;13.35;71.43
77323;BME280;66384;51.052;9.850;2023-08-08T04:58:53;98372.87;;;13.37;71.31
77323;BME280;66384;51.052;9.850;2023-08-08T05:01:24;98368.92;;;13.40;71.16
77323;BME280;66384;51.052;9.850;2023-08-08T05:03:56;98363.37;;;13.38;70.96
77323;BME280;66384;51.052;9.850;2023-08-08T05:06:27;98359.23;;;13.40;70.93
77323;BME280;66384;51.052;9.850;2023-08-08T05:08:59;98356.31;;;13.41;70.95
77323;BME280;66384;51.052;9.850;2023-08-08T05:11:30;98357.02;;;13.42;70.78
77323;BME280;66384;51.052;9.850;2023-08-08T05:14:02;98356.14;;;13.40;70.72
77323;BME280;66384;51.052;9.850;2023-08-08T05:16:33;98350.09;;;13.40;70.92
77323;BME280;66384;51.052;9.850;2023-08-08T05:19:05;98345.08;;;13.40;70.80
77323;BME280;66384;51.052;9.850;2023-08-08T05:21:36;98346.97;;;13.40;70.70
77323;BME280;66384;51.052;9.850;2023-08-08T05:24:08;98359.41;;;13.39;70.58
77323;BME280;66384;51.052;9.850;2023-08-08T05:26:40;98358.88;;;13.38;70.60
77323;BME280;66384;51.052;9.850;2023-08-08T05:29:11;98357.80;;;13.34;70.64
77323;BME280;66384;51.052;9.850;2023-08-08T05:31:42;98357.09;;;13.31;70.75
77323;BME280;66384;51.052;9.850;2023-08-08T05:34:14;98352.58;;;13.29;70.73
77323;BME280;66384;51.052;9.850;2023-08-08T05:36:45;98348.23;;;13.28;70.77
77323;BME280;66384;51.052;9.850;2023-08-08T05:39:21;98339.94;;;13.28;70.64
77323;BME280;66384;51.052;9.850;2023-08-08T05:41:53;98348.95;;;13.29;70.51
77323;BME280;66384;51.052;9.850;2023-08-08T05:44:24;98348.27;;;13.32;70.57
77323;BME280;66384;51.052;9.850;2023-08-08T05:46:56;98350.89;;;13.34;70.60
77323;BME280;66384;51.052;9.850;2023-08-08T05:49:27;98354.21;;;13.37;70.58
77323;BME280;66384;51.052;9.850;2023-08-08T05:51:59;98351.31;;;13.41;70.49
77323;BME280;66384;51.052;9.850;2023-08-08T05:54:31;98352.21;;;13.47;70.49
77323;BME280;66384;51.052;9.850;2023-08-08T05:57:03;98357.09;;;13.50;70.21
77323;BME280;66384;51.052;9.850;2023-08-08T05:59:35;98354.86;;;13.53;70.04
77323;BME280;66384;51.052;9.850;2023-08-08T06:02:07;98352.48;;;13.57;69.81
77323;BME280;66384;51.052;9.850;2023-08-08T06:04:39;98354.06;;;13.60;69.33
77323;BME280;66384;51.052;9.850;2023-08-08T06:07:10;98350.27;;;13.61;69.43
77323;BME280;66384;51.052;9.850;2023-08-08T06:09:42;98351.49;;;13.63;69.39
77323;BME280;66384;51.052;9.850;2023-08-08T06:12:13;98352.38;;;13.66;69.10
77323;BME280;66384;51.052;9.850;2023-08-08T06:14:45;98358.98;;;13.69;69.35
77323;BME280;66384;51.052;9.850;2023-08-08T06:17:17;98352.60;;;13.72;69.38
77323;BME280;66384;51.052;9.850;2023-08-08T06:19:49;98356.46;;;13.79;69.10
77323;BME280;66384;51.052;9.850;2023-08-08T06:22:20;98349.07;;;13.84;69.00
77323;BME280;66384;51.052;9.850;2023-08-08T06:24:53;98350.33;;;13.90;68.92
77323;BME280;66384;51.052;9.850;2023-08-08T06:27:25;98355.03;;;13.94;68.59
77323;BME280;66384;51.052;9.850;2023-08-08T06:29:57;98359.54;;;13.96;68.30
77323;BME280;66384;51.052;9.850;2023-08-08T06:32:29;98359.89;;;13.97;68.15
77323;BME280;66384;51.052;9.850;2023-08-08T06:35:01;98365.77;;;13.99;68.15
77323;BME280;66384;51.052;9.850;2023-08-08T06:37:33;98364.76;;;14.01;68.22
77323;BME280;66384;51.052;9.850;2023-08-08T06:40:07;98361.66;;;14.04;68.23
77323;BME280;66384;51.052;9.850;2023-08-08T06:42:39;98358.91;;;14.06;67.98
77323;BME280;66384;51.052;9.850;2023-08-08T06:45:11;98358.59;;;14.09;67.47
77323;BME280;66384;51.052;9.850;2023-08-08T06:47:43;98360.49;;;14.11;67.23
77323;BME280;66384;51.052;9.850;2023-08-08T06:50:15;98354.98;;;14.16;67.20
77323;BME280;66384;51.052;9.850;2023-08-08T06:52:48;98360.92;;;14.21;67.23
77323;BME280;66384;51.052;9.850;2023-08-08T06:55:20;98356.63;;;14.26;66.98
77323;BME280;66384;51.052;9.850;2023-08-08T06:57:51;98355.41;;;14.28;66.76
77323;BME280;66384;51.052;9.850;2023-08-08T07:00:23;98351.10;;;14.29;66.55
77323;BME280;66384;51.052;9.850;2023-08-08T07:02:57;98346.07;;;14.26;66.20
77323;BME280;66384;51.052;9.850;2023-08-08T07:05:32;98341.90;;;14.24;66.48
77323;BME280;66384;51.052;9.850;2023-08-08T07:08:04;98338.77;;;14.21;66.73
77323;BME280;66384;51.052;9.850;2023-08-08T07:10:36;98338.25;;;14.19;66.56
77323;BME280;66384;51.052;9.850;2023-08-08T07:13:08;98348.94;;;14.16;66.62
77323;BME280;66384;51.052;9.850;2023-08-08T07:15:39;98346.34;;;14.16;66.83
77323;BME280;66384;51.052;9.850;2023-08-08T07:18:11;98344.45;;;14.17;67.03
77323;BME280;66384;51.052;9.850;2023-08-08T07:20:43;98347.41;;;14.19;66.96
77323;BME280;66384;51.052;9.850;2023-08-08T07:23:14;98345.36;;;14.24;67.07
77323;BME280;66384;51.052;9.850;2023-08-08T07:25:47;98347.98;;;14.28;67.02
77323;BME280;66384;51.052;9.850;2023-08-08T07:28:21;98351.65;;;14.35;67.10
77323;BME280;66384;51.052;9.850;2023-08-08T07:30:52;98348.23;;;14.45;67.04
77323;BME280;66384;51.052;9.850;2023-08-08T07:33:24;98346.77;;;14.55;66.80
77323;BME280;66384;51.052;9.850;2023-08-08T07:35:55;98342.82;;;14.61;66.27
77323;BME280;66384;51.052;9.850;2023-08-08T07:38:27;98337.98;;;14.66;66.15
77323;BME280;66384;51.052;9.850;2023-08-08T07:40:59;98332.81;;;14.71;66.01
77323;BME280;66384;51.052;9.850;2023-08-08T07:43:30;98332.84;;;14.78;65.86
77323;BME280;66384;51.052;9.850;2023-08-08T07:46:01;98329.73;;;14.84;65.53
77323;BME280;66384;51.052;9.850;2023-08-08T07:48:33;98329.58;;;14.87;65.69
77323;BME280;66384;51.052;9.850;2023-08-08T07:51:05;98327.87;;;14.92;65.62
77323;BME280;66384;51.052;9.850;2023-08-08T07:53:36;98327.02;;;14.98;65.56
77323;BME280;66384;51.052;9.850;2023-08-08T07:56:08;98330.67;;;15.05;65.43
77323;BME280;66384;51.052;9.850;2023-08-08T07:58:39;98332.77;;;15.10;65.59
77323;BME280;66384;51.052;9.850;2023-08-08T08:01:11;98330.34;;;15.17;65.36
77323;BME280;66384;51.052;9.850;2023-08-08T08:03:44;98337.80;;;15.23;64.95
77323;BME280;66384;51.052;9.850;2023-08-08T08:06:16;98335.73;;;15.27;64.79
77323;BME280;66384;51.052;9.850;2023-08-08T08:08:48;98333.84;;;15.32;64.52
77323;BME280;66384;51.052;9.850;2023-08-08T08:11:19;98335.06;;;15.38;64.62
77323;BME280;66384;51.052;9.850;2023-08-08T08:13:51;98335.42;;;15.46;64.56
77323;BME280;66384;51.052;9.850;2023-08-08T08:16:22;98336.64;;;15.55;64.60
77323;BME280;66384;51.052;9.850;2023-08-08T08:18:54;98337.34;;;15.61;64.51
77323;BME280;66384;51.052;9.850;2023-08-08T08:21:26;98328.31;;;15.64;64.14
77323;BME280;66384;51.052;9.850;2023-08-08T08:23:57;98325.55;;;15.66;64.06
77323;BME280;66384;51.052;9.850;2023-08-08T08:26:29;98325.58;;;15.69;64.09
77323;BME280;66384;51.052;9.850;2023-08-08T08:29:00;98323.84;;;15.69;63.87
77323;BME280;66384;51.052;9.850;2023-08-08T08:31:32;98322.63;;;15.69;64.17
77323;BME280;66384;51.052;9.850;2023-08-08T08:34:04;98318.46;;;15.70;63.79
77323;BME280;66384;51.052;9.850;2023-08-08T08:36:36;98315.86;;;15.76;64.04
77323;BME280;66384;51.052;9.850;2023-08-08T08:39:07;98312.55;;;15.84;64.02
77323;BME280;66384;51.052;9.850;2023-08-08T08:41:39;98314.11;;;15.93;63.93
77323;BME280;66384;51.052;9.850;2023-08-08T08:44:11;98311.14;;;16.03;63.74
77323;BME280;66384;51.052;9.850;2023-08-08T08:46:43;98303.68;;;16.11;63.34
77323;BME280;66384;51.052;9.850;2023-08-08T08:49:18;98305.02;;;16.22;63.35
77323;BME280;66384;51.052;9.850;2023-08-08T08:51:52;98306.55;;;16.35;62.85
77323;BME280;66384;51.052;9.850;2023-08-08T08:54:25;98308.77;;;16.47;62.16
77323;BME280;66384;51.052;9.850;2023-08-08T08:56:57;98309.78;;;16.56;62.14
77323;BME280;66384;51.052;9.850;2023-08-08T08:59:29;98306.61;;;16.66;61.63
77323;BME280;66384;51.052;9.850;2023-08-08T09:02:00;98308.31;;;16.73;61.67
77323;BME280;66384;51.052;9.850;2023-08-08T09:04:34;98298.23;;;16.79;61.12
77323;BME280;66384;51.052;9.850;2023-08-08T09:07:07;98302.72;;;16.87;60.73
77323;BME280;66384;51.052;9.850;2023-08-08T09:09:43;98299.25;;;16.86;60.80
77323;BME280;66384;51.052;9.850;2023-08-08T09:12:14;98302.53;;;16.89;60.22
77323;BME280;66384;51.052;9.850;2023-08-08T09:14:53;98299.57;;;16.90;60.02
77323;BME280;66384;51.052;9.850;2023-08-08T09:17:28;98294.02;;;16.89;59.56
77323;BME280;66384;51.052;9.850;2023-08-08T09:20:17;98292.84;;;16.83;59.81
77323;BME280;66384;51.052;9.850;2023-08-08T09:22:50;98293.72;;;16.81;60.37
77323;BME280;66384;51.052;9.850;2023-08-08T09:25:22;98292.51;;;16.79;60.64
77323;BME280;66384;51.052;9.850;2023-08-08T09:27:54;98291.14;;;16.76;59.88
77323;BME280;66384;51.052;9.850;2023-08-08T09:30:27;98291.14;;;16.70;59.60
77323;BME280;66384;51.052;9.850;2023-08-08T09:33:03;98291.34;;;16.63;60.03
77323;BME280;66384;51.052;9.850;2023-08-08T09:35:37;98294.66;;;16.57;59.99
77323;BME280;66384;51.052;9.850;2023-08-08T09:38:09;98294.51;;;16.52;60.15
77323;BME280;66384;51.052;9.850;2023-08-08T09:40:41;98287.91;;;16.51;60.29
77323;BME280;66384;51.052;9.850;2023-08-08T09:43:14;98288.98;;;16.49;60.68
77323;BME280;66384;51.052;9.850;2023-08-08T09:45:46;98288.11;;;16.48;60.77
77323;BME280;66384;51.052;9.850;2023-08-08T09:48:19;98285.82;;;16.55;60.55
77323;BME280;66384;51.052;9.850;2023-08-08T09:50:51;98279.69;;;16.67;60.39
77323;BME280;66384;51.052;9.850;2023-08-08T09:53:23;98283.82;;;16.82;59.37
77323;BME280;66384;51.052;9.850;2023-08-08T09:55:55;98283.56;;;16.95;58.75
77323;BME280;66384;51.052;9.850;2023-08-08T09:58:27;98284.35;;;17.07;58.11
77323;BME280;66384;51.052;9.850;2023-08-08T10:00:59;98285.65;;;17.20;56.73
77323;BME280;66384;51.052;9.850;2023-08-08T10:03:32;98275.30;;;17.34;56.62
77323;BME280;66384;51.052;9.850;2023-08-08T10:06:05;98269.27;;;17.48;56.33
77323;BME280;66384;51.052;9.850;2023-08-08T10:08:36;98272.44;;;17.64;56.15
77323;BME280;66384;51.052;9.850;2023-08-08T10:11:08;98279.86;;;17.71;55.27
77323;BME280;66384;51.052;9.850;2023-08-08T10:13:48;98279.84;;;17.73;55.55
77323;BME280;66384;51.052;9.850;2023-08-08T10:16:21;98279.30;;;17.76;55.88
77323;BME280;66384;51.052;9.850;2023-08-08T10:19:00;98277.90;;;17.80;56.42
77323;BME280;66384;51.052;9.850;2023-08-08T10:21:35;98283.11;;;17.81;55.95
77323;BME280;66384;51.052;9.850;2023-08-08T10:24:09;98287.48;;;17.75;55.41
77323;BME280;66384;51.052;9.850;2023-08-08T10:26:56;98286.47;;;17.70;55.49
77323;BME280;66384;51.052;9.850;2023-08-08T10:29:30;98283.85;;;17.72;55.60
77323;BME280;66384;51.052;9.850;2023-08-08T10:32:03;98285.73;;;17.76;55.83
77323;BME280;66384;51.052;9.850;2023-08-08T10:34:43;98289.02;;;17.79;56.13
77323;BME280;66384;51.052;9.850;2023-08-08T10:37:16;98283.47;;;17.80;55.61
77323;BME280;66384;51.052;9.850;2023-08-08T10:39:53;98289.91;;;17.80;55.39
77323;BME280;66384;51.052;9.850;2023-08-08T10:42:27;98293.20;;;17.80;55.00
77323;BME280;66384;51.052;9.850;2023-08-08T10:45:08;98296.33;;;17.80;54.35
77323;BME280;66384;51.052;9.850;2023-08-08T10:47:41;98296.50;;;17.82;54.36
77323;BME280;66384;51.052;9.850;2023-08-08T10:50:15;98298.55;;;17.85;54.41
77323;BME280;66384;51.052;9.850;2023-08-08T10:52:55;98296.42;;;17.88;53.67
77323;BME280;66384;51.052;9.850;2023-08-08T10:55:30;98290.00;;;17.88;53.62
77323;BME280;66384;51.052;9.850;2023-08-08T10:58:06;98296.27;;;17.87;53.26
77323;BME280;66384;51.052;9.850;2023-08-08T11:00:39;98288.41;;;17.89;52.42
77323;BME280;66384;51.052;9.850;2023-08-08T11:03:11;98287.15;;;17.94;52.16
77323;BME280;66384;51.052;9.850;2023-08-08T11:05:42;98285.55;;;17.97;51.66
77323;BME280;66384;51.052;9.850;2023-08-08T11:08:23;98283.80;;;17.99;51.89
77323;BME280;66384;51.052;9.850;2023-08-08T11:10:55;98290.73;;;18.01;52.49
77323;BME280;66384;51.052;9.850;2023-08-08T11:13:27;98288.95;;;18.06;52.85
77323;BME280;66384;51.052;9.850;2023-08-08T11:15:58;98290.13;;;18.10;52.29
77323;BME280;66384;51.052;9.850;2023-08-08T11:18:32;98290.44;;;18.13;52.00
77323;BME280;66384;51.052;9.850;2023-08-08T11:21:10;98288.55;;;18.11;51.77
77323;BME280;66384;51.052;9.850;2023-08-08T11:23:49;98290.73;;;18.02;52.18
77323;BME280;66384;51.052;9.850;2023-08-08T11:26:20;98292.91;;;17.91;52.33
77323;BME280;66384;51.052;9.850;2023-08-08T11:28:53;98294.42;;;17.77;52.29
77323;BME280;66384;51.052;9.850;2023-08-08T11:31:25;98295.23;;;17.64;52.75
77323;BME280;66384;51.052;9.850;2023-08-08T11:33:59;98299.33;;;17.52;52.53
77323;BME280;66384;51.052;9.850;2023-08-08T11:36:32;98322.23;;;17.37;53.53
77323;BME280;66384;51.052;9.850;2023-08-08T11:39:05;98315.20;;;17.21;55.21
77323;BME280;66384;51.052;9.850;2023-08-08T11:41:40;98306.07;;;17.09;55.52
77323;BME280;66384;51.052;9.850;2023-08-08T11:44:12;98291.11;;;17.11;55.60
77323;BME280;66384;51.052;9.850;2023-08-08T11:46:47;98290.23;;;17.14;55.12
77323;BME280;66384;51.052;9.850;2023-08-08T11:49:19;98299.95;;;17.13;54.60
77323;BME280;66384;51.052;9.850;2023-08-08T11:51:51;98294.91;;;17.16;54.71
77323;BME280;66384;51.052;9.850;2023-08-08T11:54:28;98291.94;;;17.17;54.21
77323;BME280;66384;51.052;9.850;2023-08-08T11:56:59;98286.22;;;17.14;54.35
77323;BME280;66384;51.052;9.850;2023-08-08T11:59:32;98285.89;;;17.10;54.54
77323;BME280;66384;51.052;9.850;2023-08-08T12:02:03;98288.55;;;17.05;54.28
77323;BME280;66384;51.052;9.850;2023-08-08T12:04:36;98291.88;;;17.01;54.61
77323;BME280;66384;51.052;9.850;2023-08-08T12:07:07;98296.91;;;17.00;55.16
77323;BME280;66384;51.052;9.850;2023-08-08T12:09:41;98304.73;;;17.01;55.59
77323;BME280;66384;51.052;9.850;2023-08-08T12:12:12;98303.34;;;17.00;56.18
77323;BME280;66384;51.052;9.850;2023-08-08T12:14:49;98307.86;;;16.99;57.32
77323;BME280;66384;51.052;9.850;2023-08-08T12:17:38;98317.44;;;16.97;57.70
77323;BME280;66384;51.052;9.850;2023-08-08T12:20:10;98328.23;;;16.90;58.25
77323;BME280;66384;51.052;9.850;2023-08-08T12:22:42;98335.92;;;16.76;59.95
77323;BME280;66384;51.052;9.850;2023-08-08T12:25:14;98338.23;;;16.59;60.43
77323;BME280;66384;51.052;9.850;2023-08-08T12:27:45;98344.86;;;16.48;61.11
77323;BME280;66384;51.052;9.850;2023-08-08T12:30:20;98346.63;;;16.45;62.13
77323;BME280;66384;51.052;9.850;2023-08-08T12:32:52;98340.21;;;16.37;62.29
77323;BME280;66384;51.052;9.850;2023-08-08T12:35:23;98345.63;;;16.25;62.74
77323;BME280;66384;51.052;9.850;2023-08-08T12:37:57;98345.30;;;16.12;63.02
77323;BME280;66384;51.052;9.850;2023-08-08T12:40:28;98347.55;;;16.07;63.66
77323;BME280;66384;51.052;9.850;2023-08-08T12:43:00;98350.52;;;16.03;64.12
77323;BME280;66384;51.052;9.850;2023-08-08T12:45:31;98361.28;;;15.98;64.37
77323;BME280;66384;51.052;9.850;2023-08-08T12:48:03;98359.38;;;15.88;64.08
77323;BME280;66384;51.052;9.850;2023-08-08T12:50:35;98363.71;;;15.78;64.14
77323;BME280;66384;51.052;9.850;2023-08-08T12:53:07;98366.31;;;15.71;64.43
77323;BME280;66384;51.052;9.850;2023-08-08T12:55:39;98368.89;;;15.66;64.77
77323;BME280;66384;51.052;9.850;2023-08-08T12:58:11;98361.77;;;15.63;64.82
77323;BME280;66384;51.052;9.850;2023-08-08T13:00:42;98355.36;;;15.60;64.53
77323;BME280;66384;51.052;9.850;2023-08-08T13:03:14;98347.90;;;15.62;64.57
77323;BME280;66384;51.052;9.850;2023-08-08T13:05:46;98333.87;;;15.65;64.47
77323;BME280;66384;51.052;9.850;2023-08-08T13:08:18;98327.45;;;15.67;64.16
77323;BME280;66384;51.052;9.850;2023-08-08T13:10:50;98325.40;;;15.70;64.03
77323;BME280;66384;51.052;9.850;2023-08-08T13:13:22;98324.19;;;15.73;63.52
77323;BME280;66384;51.052;9.850;2023-08-08T13:15:56;98329.39;;;15.79;63.67
77323;BME280;66384;51.052;9.850;2023-08-08T13:18:27;98330.26;;;15.86;63.58
77323;BME280;66384;51.052;9.850;2023-08-08T13:20:59;98333.89;;;15.93;63.18
77323;BME280;66384;51.052;9.850;2023-08-08T13:23:31;98325.89;;;16.02;62.94
77323;BME280;66384;51.052;9.850;2023-08-08T13:26:02;98318.77;;;16.13;63.13
77323;BME280;66384;51.052;9.850;2023-08-08T13:28:34;98318.38;;;16.27;63.07